sensor_id;sensor_type;location;lat;lon;timestamp;P1;durP1;ratioP1;P2;durP2;ratioP2
4527;SDS011;62320;51.520;6.818;2023-05-07T00:06:16;21.05;;;12.20;;
4527;SDS011;62320;51.520;6.818;2023-05-07T00:16:18;18.27;;;11.87;;
4527;SDS011;62320;51.520;6.818;2023-05-07T00:26:19;20.53;;;12.67;;
4527;SDS011;62320;51.520;6.818;2023-05-07T00:36:21;19.40;;;12.10;;
4527;SDS011;62320;51.520;6.818;2023-05-07T00:46:23;19.60;;;11.37;;
4527;SDS011;62320;51.520;6.818;2023-05-07T00:56:25;18.30;;;12.40;;
4527;SDS011;62320;51.520;6.818;2023-05-07T01:06:26;20.45;;;12.48;;
4527;SDS011;62320;51.520;6.818;2023-05-07T01:16:29;20.45;;;12.93;;
4527;SDS011;62320;51.520;6.818;2023-05-07T01:26:31;20.07;;;12.40;;
4527;SDS011;62320;51.520;6.818;2023-05-07T01:36:32;19.60;;;12.00;;
4527;SDS011;62320;51.520;6.818;2023-05-07T01:46:34;21.33;;;12.60;;
4527;SDS011;62320;51.520;6.818;2023-05-07T01:56:36;22.13;;;13.50;;
4527;SDS011;62320;51.520;6.818;2023-05-07T02:06:37;21.50;;;12.83;;
4527;SDS011;62320;51.520;6.818;2023-05-07T02:16:39;22.05;;;12.90;;
4527;SDS011;62320;51.520;6.818;2023-05-07T02:26:40;21.30;;;13.07;;
4527;SDS011;62320;51.520;6.818;2023-05-07T02:36:42;23.87;;;14.60;;
4527;SDS011;62320;51.520;6.818;2023-05-07T02:46:44;24.50;;;14.98;;
4527;SDS011;62320;51.520;6.818;2023-05-07T02:56:45;23.98;;;15.70;;
4527;SDS011;62320;51.520;6.818;2023-05-07T03:06:47;25.43;;;14.67;;
4527;SDS011;62320;51.520;6.818;2023-05-07T03:16:48;24.17;;;15.23;;
4527;SDS011;62320;51.520;6.818;2023-05-07T03:26:50;26.35;;;15.88;;
4527;SDS011;62320;51.520;6.818;2023-05-07T03:36:52;23.80;;;15.63;;
4527;SDS011;62320;51.520;6.818;2023-05-07T03:46:53;26.73;;;15.47;;
4527;SDS011;62320;51.520;6.818;2023-05-07T03:56:55;27.48;;;15.73;;
4527;SDS011;62320;51.520;6.818;2023-05-07T04:06:56;29.03;;;16.87;;
4527;SDS011;62320;51.520;6.818;2023-05-07T04:16:58;26.60;;;15.15;;
4527;SDS011;62320;51.520;6.818;2023-05-07T04:27:00;27.45;;;15.90;;
4527;SDS011;62320;51.520;6.818;2023-05-07T04:37:02;25.92;;;14.43;;
4527;SDS011;62320;51.520;6.818;2023-05-07T04:47:04;28.37;;;15.80;;
4527;SDS011;62320;51.520;6.818;2023-05-07T04:57:06;30.37;;;16.23;;
4527;SDS011;62320;51.520;6.818;2023-05-07T05:07:07;30.33;;;15.02;;
4527;SDS011;62320;51.520;6.818;2023-05-07T05:17:08;28.70;;;15.87;;
4527;SDS011;62320;51.520;6.818;2023-05-07T05:27:10;28.73;;;16.20;;
4527;SDS011;62320;51.520;6.818;2023-05-07T05:37:11;35.42;;;17.38;;
4527;SDS011;62320;51.520;6.818;2023-05-07T05:47:13;28.00;;;14.93;;
4527;SDS011;62320;51.520;6.818;2023-05-07T05:57:15;28.57;;;14.47;;
4527;SDS011;62320;51.520;6.818;2023-05-07T06:07:16;25.63;;;14.38;;
4527;SDS011;62320;51.520;6.818;2023-05-07T06:17:18;22.67;;;12.40;;
4527;SDS011;62320;51.520;6.818;2023-05-07T06:27:22;20.67;;;10.73;;
4527;SDS011;62320;51.520;6.818;2023-05-07T06:37:23;18.40;;;10.23;;
4527;SDS011;62320;51.520;6.818;2023-05-07T06:47:25;18.17;;;10.48;;
4527;SDS011;62320;51.520;6.818;2023-05-07T06:57:26;17.33;;;8.77;;
4527;SDS011;62320;51.520;6.818;2023-05-07T07:07:27;14.70;;;7.87;;
4527;SDS011;62320;51.520;6.818;2023-05-07T07:17:29;13.43;;;6.85;;
4527;SDS011;62320;51.520;6.818;2023-05-07T07:27:30;11.17;;;6.67;;
4527;SDS011;62320;51.520;6.818;2023-05-07T07:37:32;11.40;;;6.50;;
4527;SDS011;62320;51.520;6.818;2023-05-07T07:47:33;10.60;;;5.80;;
4527;SDS011;62320;51.520;6.818;2023-05-07T07:57:35;7.63;;;4.45;;
4527;SDS011;62320;51.520;6.818;2023-05-07T08:07:36;6.93;;;3.73;;
4527;SDS011;62320;51.520;6.818;2023-05-07T08:17:38;7.17;;;4.30;;
4527;SDS011;62320;51.520;6.818;2023-05-07T08:27:39;7.22;;;4.03;;
4527;SDS011;62320;51.520;6.818;2023-05-07T08:37:41;9.27;;;4.17;;
4527;SDS011;62320;51.520;6.818;2023-05-07T08:47:43;7.20;;;4.00;;
4527;SDS011;62320;51.520;6.818;2023-05-07T08:57:47;8.77;;;4.50;;
4527;SDS011;62320;51.520;6.818;2023-05-07T09:07:49;7.83;;;4.23;;
4527;SDS011;62320;51.520;6.818;2023-05-07T09:17:58;8.43;;;4.33;;
4527;SDS011;62320;51.520;6.818;2023-05-07T09:28:03;8.93;;;4.32;;
4527;SDS011;62320;51.520;6.818;2023-05-07T09:38:05;9.50;;;4.27;;
4527;SDS011;62320;51.520;6.818;2023-05-07T09:48:07;7.20;;;3.80;;
4527;SDS011;62320;51.520;6.818;2023-05-07T09:58:11;7.00;;;4.20;;
4527;SDS011;62320;51.520;6.818;2023-05-07T10:08:14;8.07;;;4.32;;
4527;SDS011;62320;51.520;6.818;2023-05-07T10:18:18;7.17;;;3.10;;
4527;SDS011;62320;51.520;6.818;2023-05-07T10:28:23;5.57;;;2.80;;
4527;SDS011;62320;51.520;6.818;2023-05-07T10:38:27;6.30;;;3.30;;
4527;SDS011;62320;51.520;6.818;2023-05-07T10:48:29;7.53;;;2.97;;
4527;SDS011;62320;51.520;6.818;2023-05-07T10:58:31;6.20;;;3.27;;
4527;SDS011;62320;51.520;6.818;2023-05-07T11:08:53;6.53;;;3.30;;
4527;SDS011;62320;51.520;6.818;2023-05-07T11:18:58;7.17;;;3.40;;
4527;SDS011;62320;51.520;6.818;2023-05-07T11:29:00;6.97;;;3.23;;
4527;SDS011;62320;51.520;6.818;2023-05-07T11:39:02;7.00;;;3.50;;
4527;SDS011;62320;51.520;6.818;2023-05-07T11:49:03;7.80;;;4.00;;
4527;SDS011;62320;51.520;6.818;2023-05-07T11:59:05;7.30;;;2.40;;
4527;SDS011;62320;51.520;6.818;2023-05-07T12:09:07;5.00;;;2.50;;
4527;SDS011;62320;51.520;6.818;2023-05-07T12:19:13;6.53;;;2.92;;
4527;SDS011;62320;51.520;6.818;2023-05-07T12:29:16;6.13;;;2.40;;
4527;SDS011;62320;51.520;6.818;2023-05-07T12:39:17;6.03;;;2.57;;
4527;SDS011;62320;51.520;6.818;2023-05-07T12:49:19;6.35;;;3.03;;
4527;SDS011;62320;51.520;6.818;2023-05-07T12:59:30;6.90;;;2.93;;
4527;SDS011;62320;51.520;6.818;2023-05-07T13:09:35;6.67;;;3.00;;
4527;SDS011;62320;51.520;6.818;2023-05-07T13:19:38;7.73;;;3.27;;
4527;SDS011;62320;51.520;6.818;2023-05-07T13:29:39;7.82;;;4.30;;
4527;SDS011;62320;51.520;6.818;2023-05-07T13:39:41;7.93;;;4.33;;
4527;SDS011;62320;51.520;6.818;2023-05-07T13:49:42;8.50;;;4.07;;
4527;SDS011;62320;51.520;6.818;2023-05-07T13:59:44;9.38;;;4.95;;
4527;SDS011;62320;51.520;6.818;2023-05-07T14:09:45;8.10;;;4.57;;
4527;SDS011;62320;51.520;6.818;2023-05-07T14:19:47;11.20;;;5.50;;
4527;SDS011;62320;51.520;6.818;2023-05-07T14:29:48;9.27;;;5.82;;
4527;SDS011;62320;51.520;6.818;2023-05-07T14:39:52;10.73;;;5.87;;
4527;SDS011;62320;51.520;6.818;2023-05-07T14:49:53;9.93;;;5.57;;
4527;SDS011;62320;51.520;6.818;2023-05-07T14:59:55;13.57;;;6.60;;
4527;SDS011;62320;51.520;6.818;2023-05-07T15:09:58;13.55;;;7.65;;
4527;SDS011;62320;51.520;6.818;2023-05-07T15:19:59;15.47;;;7.37;;
4527;SDS011;62320;51.520;6.818;2023-05-07T15:30:01;12.03;;;6.60;;
4527;SDS011;62320;51.520;6.818;2023-05-07T15:40:03;14.45;;;7.80;;
4527;SDS011;62320;51.520;6.818;2023-05-07T15:50:06;13.97;;;7.43;;
4527;SDS011;62320;51.520;6.818;2023-05-07T16:00:08;12.23;;;7.13;;
4527;SDS011;62320;51.520;6.818;2023-05-07T16:10:12;12.25;;;7.43;;
4527;SDS011;62320;51.520;6.818;2023-05-07T16:20:15;12.57;;;6.33;;
4527;SDS011;62320;51.520;6.818;2023-05-07T16:30:20;11.97;;;6.60;;
4527;SDS011;62320;51.520;6.818;2023-05-07T16:40:21;12.17;;;6.97;;
4527;SDS011;62320;51.520;6.818;2023-05-07T16:50:23;12.13;;;7.18;;
4527;SDS011;62320;51.520;6.818;2023-05-07T17:00:25;13.17;;;7.43;;
4527;SDS011;62320;51.520;6.818;2023-05-07T17:10:35;14.67;;;7.50;;
4527;SDS011;62320;51.520;6.818;2023-05-07T17:20:36;14.20;;;8.20;;
4527;SDS011;62320;51.520;6.818;2023-05-07T17:30:40;12.43;;;7.50;;
4527;SDS011;62320;51.520;6.818;2023-05-07T17:40:42;14.93;;;8.00;;
4527;SDS011;62320;51.520;6.818;2023-05-07T17:50:43;13.32;;;7.75;;
4527;SDS011;62320;51.520;6.818;2023-05-07T18:00:45;13.07;;;8.47;;
4527;SDS011;62320;51.520;6.818;2023-05-07T18:10:46;12.73;;;7.73;;
4527;SDS011;62320;51.520;6.818;2023-05-07T18:20:50;11.23;;;6.87;;
4527;SDS011;62320;51.520;6.818;2023-05-07T18:30:52;12.15;;;7.10;;
4527;SDS011;62320;51.520;6.818;2023-05-07T18:40:59;12.67;;;7.83;;
4527;SDS011;62320;51.520;6.818;2023-05-07T18:51:01;12.23;;;7.47;;
4527;SDS011;62320;51.520;6.818;2023-05-07T19:01:03;11.98;;;7.47;;
4527;SDS011;62320;51.520;6.818;2023-05-07T19:11:09;14.07;;;8.10;;
4527;SDS011;62320;51.520;6.818;2023-05-07T19:21:10;17.70;;;8.27;;
4527;SDS011;62320;51.520;6.818;2023-05-07T19:31:22;15.68;;;8.68;;
4527;SDS011;62320;51.520;6.818;2023-05-07T19:41:27;14.98;;;9.18;;
4527;SDS011;62320;51.520;6.818;2023-05-07T19:51:28;17.40;;;10.07;;
4527;SDS011;62320;51.520;6.818;2023-05-07T20:01:32;20.63;;;11.93;;
4527;SDS011;62320;51.520;6.818;2023-05-07T20:11:34;20.40;;;11.20;;
4527;SDS011;62320;51.520;6.818;2023-05-07T20:21:36;18.00;;;10.07;;
4527;SDS011;62320;51.520;6.818;2023-05-07T20:31:37;15.33;;;9.47;;
4527;SDS011;62320;51.520;6.818;2023-05-07T20:41:39;18.42;;;10.05;;
4527;SDS011;62320;51.520;6.818;2023-05-07T20:51:40;21.37;;;10.73;;
4527;SDS011;62320;51.520;6.818;2023-05-07T21:01:42;19.27;;;11.37;;
4527;SDS011;62320;51.520;6.818;2023-05-07T21:11:43;18.48;;;11.40;;
4527;SDS011;62320;51.520;6.818;2023-05-07T21:21:45;18.45;;;11.55;;
4527;SDS011;62320;51.520;6.818;2023-05-07T21:31:46;14.67;;;8.70;;
4527;SDS011;62320;51.520;6.818;2023-05-07T21:41:48;14.17;;;7.67;;
4527;SDS011;62320;51.520;6.818;2023-05-07T21:51:50;13.48;;;7.65;;
4527;SDS011;62320;51.520;6.818;2023-05-07T22:01:51;15.17;;;8.57;;
4527;SDS011;62320;51.520;6.818;2023-05-07T22:11:53;17.63;;;9.13;;
4527;SDS011;62320;51.520;6.818;2023-05-07T22:21:55;16.45;;;9.25;;
4527;SDS011;62320;51.520;6.818;2023-05-07T22:31:57;19.00;;;9.90;;
4527;SDS011;62320;51.520;6.818;2023-05-07T22:41:59;21.30;;;10.90;;
4527;SDS011;62320;51.520;6.818;2023-05-07T22:52:02;20.30;;;11.40;;
4527;SDS011;62320;51.520;6.818;2023-05-07T23:02:03;20.35;;;12.05;;
4527;SDS011;62320;51.520;6.818;2023-05-07T23:12:05;20.80;;;11.37;;
4527;SDS011;62320;51.520;6.818;2023-05-07T23:22:07;21.80;;;11.87;;
4527;SDS011;62320;51.520;6.818;2023-05-07T23:32:08;21.45;;;11.75;;
4527;SDS011;62320;51.520;6.818;2023-05-07T23:42:09;22.67;;;11.70;;
4527;SDS011;62320;51.520;6.818;2023-05-07T23:52:11;23.60;;;12.83;;
